createdAt,value
2023-04-25T00:01:26.690Z,101275.28
2023-04-25T00:03:54.659Z,101271.66
2023-04-25T00:06:22.398Z,101272.81
2023-04-25T00:08:49.577Z,101280.72
2023-04-25T00:11:16.778Z,101272.28
2023-04-25T00:13:44.328Z,101266.97
2023-04-25T00:16:12.306Z,101266.44
2023-04-25T00:18:39.829Z,101266.44
2023-04-25T00:21:07.709Z,101264.25
2023-04-25T00:23:37.279Z,101262.59
2023-04-25T00:26:04.465Z,101264.56
2023-04-25T00:28:31.835Z,101268.84
2023-04-25T00:30:59.052Z,101279.03
2023-04-25T00:33:26.638Z,101283.84
2023-04-25T00:35:53.704Z,101281.13
2023-04-25T00:38:21.261Z,101289.56
2023-04-25T00:40:48.428Z,101291.53
2023-04-25T00:43:15.786Z,101290.50
2023-04-25T00:45:44.597Z,101291.59
2023-04-25T00:48:11.705Z,101298.38
2023-04-25T00:50:38.754Z,101292.91
2023-04-25T00:53:06.079Z,101288.22
2023-04-25T00:55:45.247Z,101286.03
2023-04-25T00:58:12.241Z,101300.09
2023-04-25T01:00:39.345Z,101307.78
2023-04-25T01:03:06.477Z,101296.63
2023-04-25T01:05:33.584Z,101304.22
2023-04-25T01:08:01.170Z,101296.47
2023-04-25T01:10:28.177Z,101302.44
2023-04-25T01:12:55.207Z,101293.16
2023-04-25T01:15:22.305Z,101293.25
2023-04-25T01:17:50.706Z,101291.66
2023-04-25T01:20:18.018Z,101298.09
2023-04-25T01:22:44.946Z,101302.47
2023-04-25T01:25:11.981Z,101299.88
2023-04-25T01:27:39.136Z,101301.41
2023-04-25T01:30:06.990Z,101300.03
2023-04-25T01:32:39.686Z,101300.31
2023-04-25T01:35:10.917Z,101292.00
2023-04-25T01:37:38.927Z,101303.53
2023-04-25T01:40:06.959Z,101299.66
2023-04-25T01:42:34.538Z,101308.91
2023-04-25T01:45:01.563Z,101307.84
2023-04-25T01:47:30.043Z,101319.06
2023-04-25T01:49:58.069Z,101322.47
2023-04-25T01:52:25.614Z,101314.09
2023-04-25T01:54:52.891Z,101323.69
2023-04-25T01:57:19.939Z,101324.28
2023-04-25T01:59:47.320Z,101329.06
2023-04-25T02:02:14.349Z,101318.16
2023-04-25T02:04:41.515Z,101319.00
2023-04-25T02:07:08.448Z,101317.09
2023-04-25T02:09:35.261Z,101317.09
2023-04-25T02:12:03.262Z,101320.47
2023-04-25T02:14:30.141Z,101319.97
2023-04-25T02:16:57.084Z,101323.06
2023-04-25T02:19:23.989Z,101321.94
2023-04-25T02:21:50.770Z,101321.94
2023-04-25T02:24:17.891Z,101327.31
2023-04-25T02:26:45.373Z,101326.78
2023-04-25T02:29:12.170Z,101330.94
2023-04-25T02:31:38.957Z,101330.19
2023-04-25T02:34:08.352Z,101326.31
2023-04-25T02:36:36.734Z,101330.53
2023-04-25T02:39:04.434Z,101322.97
2023-04-25T02:41:31.376Z,101332.00
2023-04-25T02:43:58.394Z,101336.22
2023-04-25T02:46:37.755Z,101329.25
2023-04-25T02:49:06.478Z,101334.03
2023-04-25T02:51:33.908Z,101332.66
2023-04-25T02:54:00.702Z,101336.06
2023-04-25T02:56:28.064Z,101332.41
2023-04-25T02:58:54.972Z,101335.81
2023-04-25T03:01:21.904Z,101349.03
2023-04-25T03:03:49.001Z,101351.81
2023-04-25T03:06:17.130Z,101343.78
2023-04-25T03:08:44.201Z,101345.97
2023-04-25T03:11:11.686Z,101342.94
2023-04-25T03:13:38.549Z,101344.06
2023-04-25T03:16:05.818Z,101341.88
2023-04-25T03:18:32.883Z,101345.81
2023-04-25T03:20:59.735Z,101350.28
2023-04-25T03:23:27.297Z,101351.19
2023-04-25T03:25:54.112Z,101358.16
2023-04-25T03:28:21.484Z,101356.47
2023-04-25T03:30:48.350Z,101357.38
2023-04-25T03:33:17.698Z,101366.09
2023-04-25T03:35:44.514Z,101365.50
2023-04-25T03:38:11.320Z,101363.03
2023-04-25T03:40:38.146Z,101363.59
2023-04-25T03:43:08.160Z,101363.91
2023-04-25T03:45:34.956Z,101372.34
2023-04-25T03:48:01.944Z,101367.91
2023-04-25T03:50:28.803Z,101371.84
2023-04-25T03:52:55.587Z,101378.06
2023-04-25T03:55:22.303Z,101372.44
2023-04-25T03:57:49.060Z,101367.41
2023-04-25T04:00:16.114Z,101378.94
2023-04-25T04:02:45.161Z,101373.59
2023-04-25T04:05:12.586Z,101369.72
2023-04-25T04:07:41.393Z,101376.75
2023-04-25T04:10:08.898Z,101384.31
2023-04-25T04:12:35.694Z,101388.28
2023-04-25T04:15:05.033Z,101379.59
2023-04-25T04:17:32.079Z,101392.81
2023-04-25T04:19:59.793Z,101397.56
2023-04-25T04:22:26.795Z,101396.19
2023-04-25T04:24:54.104Z,101397.63
2023-04-25T04:27:21.002Z,101401.53
2023-04-25T04:29:47.942Z,101407.44
2023-04-25T04:32:15.263Z,101405.22
2023-04-25T04:34:42.703Z,101411.44
2023-04-25T04:37:09.526Z,101414.53
2023-04-25T04:39:36.455Z,101422.09
2023-04-25T04:42:03.352Z,101427.97
2023-04-25T04:44:33.849Z,101433.59
2023-04-25T04:47:01.026Z,101435.84
2023-04-25T04:49:27.925Z,101436.69
2023-04-25T04:51:57.877Z,101437.78
2023-04-25T04:54:26.205Z,101441.09
2023-04-25T04:56:53.786Z,101445.53
2023-04-25T04:59:20.548Z,101440.72
2023-04-25T05:01:48.136Z,101434.25
2023-04-25T05:04:15.154Z,101441.78
2023-04-25T05:06:41.988Z,101440.91
2023-04-25T05:09:08.821Z,101437.22
2023-04-25T05:11:38.139Z,101439.97
2023-04-25T05:14:04.968Z,101453.69
2023-04-25T05:16:31.948Z,101467.66
2023-04-25T05:18:58.876Z,101469.31
2023-04-25T05:21:25.654Z,101476.84
2023-04-25T05:23:52.837Z,101480.44
2023-04-25T05:26:19.961Z,101477.56
2023-04-25T05:28:46.929Z,101480.31
2023-04-25T05:31:14.202Z,101487.00
2023-04-25T05:33:41.008Z,101501.84
2023-04-25T05:36:08.293Z,101509.38
2023-04-25T05:38:35.248Z,101508.78
2023-04-25T05:41:02.256Z,101515.50
2023-04-25T05:43:29.145Z,101519.66
2023-04-25T05:45:56.112Z,101514.28
2023-04-25T05:48:23.104Z,101519.34
2023-04-25T05:50:49.983Z,101511.44
2023-04-25T05:53:16.805Z,101505.53
2023-04-25T05:55:43.654Z,101512.50
2023-04-25T05:58:10.476Z,101517.84
2023-04-25T06:00:37.648Z,101521.16
2023-04-25T06:03:11.082Z,101530.16
2023-04-25T06:05:38.335Z,101520.03
2023-04-25T06:08:05.275Z,101521.72
2023-04-25T06:10:34.428Z,101523.09
2023-04-25T06:13:01.259Z,101525.91
2023-04-25T06:15:29.047Z,101527.56
2023-04-25T06:17:56.743Z,101527.28
2023-04-25T06:20:25.766Z,101531.78
2023-04-25T06:22:54.057Z,101535.44
2023-04-25T06:25:21.578Z,101543.03
2023-04-25T06:27:48.528Z,101539.66
2023-04-25T06:30:15.483Z,101538.53
2023-04-25T06:32:42.858Z,101534.50
2023-04-25T06:35:10.275Z,101535.50
2023-04-25T06:37:37.162Z,101544.72
2023-04-25T06:40:04.265Z,101549.50
2023-04-25T06:42:31.452Z,101552.25
2023-04-25T06:44:58.353Z,101544.66
2023-04-25T06:47:25.222Z,101546.81
2023-04-25T06:49:54.553Z,101544.53
2023-04-25T06:52:21.505Z,101552.69
2023-04-25T06:54:48.647Z,101548.97
2023-04-25T06:57:18.067Z,101560.44
2023-04-25T06:59:44.951Z,101563.25
2023-04-25T07:02:11.942Z,101553.09
2023-04-25T07:04:39.257Z,101556.44
2023-04-25T07:07:06.331Z,101551.28
2023-04-25T07:09:35.323Z,101549.88
2023-04-25T07:12:03.930Z,101557.19
2023-04-25T07:14:31.389Z,101559.09
2023-04-25T07:16:58.458Z,101568.88
2023-04-25T07:19:27.971Z,101562.66
2023-04-25T07:21:55.180Z,101565.47
2023-04-25T07:24:22.047Z,101573.56
2023-04-25T07:26:49.030Z,101583.06
2023-04-25T07:29:16.047Z,101582.16
2023-04-25T07:31:43.036Z,101584.91
2023-04-25T07:34:10.067Z,101588.25
2023-04-25T07:36:37.043Z,101595.78
2023-04-25T07:39:04.742Z,101590.16
2023-04-25T07:41:31.896Z,101590.09
2023-04-25T07:43:58.895Z,101587.00
2023-04-25T07:46:25.938Z,101592.31
2023-04-25T07:48:53.362Z,101588.66
2023-04-25T07:51:21.269Z,101595.44
2023-04-25T07:53:50.206Z,101595.97
2023-04-25T07:56:17.883Z,101602.41
2023-04-25T07:58:44.953Z,101606.06
2023-04-25T08:01:11.936Z,101607.75
2023-04-25T08:03:43.230Z,101620.13
2023-04-25T08:06:10.972Z,101625.47
2023-04-25T08:08:40.545Z,101627.09
2023-04-25T08:11:10.442Z,101624.78
2023-04-25T08:13:37.375Z,101633.22
2023-04-25T08:16:04.615Z,101624.78
2023-04-25T08:18:43.457Z,101626.19
2023-04-25T08:21:12.831Z,101622.22
2023-04-25T08:23:40.170Z,101626.16
2023-04-25T08:26:09.468Z,101629.22
2023-04-25T08:28:37.132Z,101628.34
2023-04-25T08:31:07.326Z,101643.84
2023-04-25T08:33:38.197Z,101643.25
2023-04-25T08:36:05.469Z,101636.25
2023-04-25T08:38:32.974Z,101641.88
2023-04-25T08:41:01.110Z,101640.97
2023-04-25T08:43:30.607Z,101632.53
2023-04-25T08:46:00.501Z,101639.84
2023-04-25T08:48:28.728Z,101634.81
2023-04-25T08:50:56.560Z,101634.50
2023-04-25T08:53:26.749Z,101630.25
2023-04-25T08:55:57.725Z,101635.06
2023-04-25T08:58:24.846Z,101634.50
2023-04-25T09:00:53.201Z,101630.03
2023-04-25T09:03:40.079Z,101627.81
2023-04-25T09:06:07.302Z,101637.09
2023-04-25T09:08:34.455Z,101635.66
2023-04-25T09:11:01.357Z,101635.97
2023-04-25T09:13:29.842Z,101639.56
2023-04-25T09:15:58.262Z,101633.31
2023-04-25T09:18:30.756Z,101629.34
2023-04-25T09:21:13.677Z,101627.84
2023-04-25T09:23:42.804Z,101632.03
2023-04-25T09:26:10.755Z,101640.72
2023-04-25T09:28:39.268Z,101636.75
2023-04-25T09:31:06.869Z,101638.66
2023-04-25T09:33:34.978Z,101634.09
2023-04-25T09:36:04.884Z,101641.41
2023-04-25T09:38:32.812Z,101630.88
2023-04-25T09:41:08.164Z,101637.91
2023-04-25T09:43:35.602Z,101635.00
2023-04-25T09:46:02.969Z,101633.84
2023-04-25T09:48:31.040Z,101632.50
2023-04-25T09:51:07.766Z,101631.66
2023-04-25T09:53:36.156Z,101626.56
2023-04-25T09:56:05.603Z,101635.25
2023-04-25T09:58:33.418Z,101629.59
2023-04-25T10:01:03.163Z,101624.75
2023-04-25T10:03:32.605Z,101629.81
2023-04-25T10:06:01.855Z,101623.06
2023-04-25T10:08:33.618Z,101620.75
2023-04-25T10:11:02.530Z,101618.19
2023-04-25T10:13:30.459Z,101625.47
2023-04-25T10:15:59.504Z,101627.16
2023-04-25T10:18:28.167Z,101624.13
2023-04-25T10:20:56.337Z,101630.59
2023-04-25T10:23:23.537Z,101624.34
2023-04-25T10:25:52.192Z,101634.47
2023-04-25T10:28:22.325Z,101630.81
2023-04-25T10:31:00.059Z,101634.84
2023-04-25T10:33:36.718Z,101638.56
2023-04-25T10:36:10.949Z,101638.81
2023-04-25T10:38:39.121Z,101636.59
2023-04-25T10:41:07.050Z,101643.47
2023-04-25T10:43:43.868Z,101636.91
2023-04-25T10:46:15.154Z,101646.28
2023-04-25T10:48:47.266Z,101635.94
2023-04-25T10:51:18.720Z,101636.66
2023-04-25T10:53:46.598Z,101638.97
2023-04-25T10:56:23.689Z,101628.84
2023-04-25T10:58:52.185Z,101643.00
2023-04-25T11:01:24.005Z,101641.25
2023-04-25T11:06:48.585Z,101630.03
2023-04-25T11:09:16.216Z,101631.28
2023-04-25T11:11:43.324Z,101636.13
2023-04-25T11:14:10.884Z,101633.94
2023-04-25T11:16:38.310Z,101626.94
2023-04-25T11:19:05.767Z,101628.06
2023-04-25T11:21:33.588Z,101639.50
2023-04-25T11:24:01.301Z,101627.22
2023-04-25T11:26:28.488Z,101620.09
2023-04-25T11:28:58.880Z,101617.50
2023-04-25T11:31:27.257Z,101624.41
2023-04-25T11:33:56.810Z,101618.41
2023-04-25T11:36:24.336Z,101626.22
2023-04-25T11:38:53.285Z,101623.34
2023-04-25T11:41:20.644Z,101623.84
2023-04-25T11:43:48.006Z,101627.47
2023-04-25T11:46:15.195Z,101622.06
2023-04-25T11:48:43.617Z,101627.63
2023-04-25T11:53:42.858Z,101632.41
2023-04-25T11:56:12.855Z,101630.31
2023-04-25T11:58:49.522Z,101628.59
2023-04-25T12:01:29.915Z,101632.84
2023-04-25T12:03:59.032Z,101635.38
2023-04-25T12:06:28.226Z,101630.88
2023-04-25T12:09:05.776Z,101642.56
2023-04-25T12:11:34.410Z,101638.63
2023-04-25T12:14:05.585Z,101638.09
2023-04-25T12:16:43.079Z,101635.88
2023-04-25T12:19:10.528Z,101630.78
2023-04-25T12:21:46.984Z,101641.44
2023-04-25T12:24:27.147Z,101643.41
2023-04-25T12:26:56.030Z,101639.88
2023-04-25T12:29:24.955Z,101645.50
2023-04-25T12:31:56.268Z,101647.22
2023-04-25T12:34:24.538Z,101644.81
2023-04-25T12:36:55.696Z,101639.06
2023-04-25T12:39:24.092Z,101640.19
2023-04-25T12:41:52.252Z,101638.22
2023-04-25T12:44:19.703Z,101639.97
2023-04-25T12:46:47.215Z,101640.88
2023-04-25T12:49:18.602Z,101647.72
2023-04-25T12:51:46.801Z,101645.28
2023-04-25T12:54:15.783Z,101642.69
2023-04-25T12:56:43.654Z,101644.13
2023-04-25T12:59:11.132Z,101650.09
2023-04-25T13:01:46.093Z,101645.50
2023-04-25T13:04:13.385Z,101636.00
2023-04-25T13:06:40.521Z,101643.13
2023-04-25T13:09:08.661Z,101637.00
2023-04-25T13:11:36.035Z,101655.31
2023-04-25T13:14:03.928Z,101653.13
2023-04-25T13:16:31.356Z,101657.13
2023-04-25T13:18:58.565Z,101655.50
2023-04-25T13:21:25.530Z,101651.06
2023-04-25T13:23:52.931Z,101658.44
2023-04-25T13:26:20.579Z,101656.53
2023-04-25T13:28:47.643Z,101651.19
2023-04-25T13:31:14.887Z,101653.56
2023-04-25T13:33:42.022Z,101654.69
2023-04-25T13:36:09.140Z,101651.31
2023-04-25T13:38:36.414Z,101660.38
2023-04-25T13:41:03.729Z,101666.00
2023-04-25T13:43:31.050Z,101657.84
2023-04-25T13:45:58.019Z,101664.38
2023-04-25T13:48:25.894Z,101661.06
2023-04-25T13:50:53.123Z,101663.28
2023-04-25T13:53:20.283Z,101658.56
2023-04-25T13:55:47.856Z,101665.63
2023-04-25T13:58:14.973Z,101667.91
2023-04-25T14:00:44.681Z,101664.00
2023-04-25T14:03:12.212Z,101661.19
2023-04-25T14:05:40.483Z,101662.94
2023-04-25T14:08:09.851Z,101658.75
2023-04-25T14:10:37.135Z,101651.44
2023-04-25T14:13:04.936Z,101656.84
2023-04-25T14:15:33.680Z,101652.94
2023-04-25T14:18:01.553Z,101657.19
2023-04-25T14:20:45.187Z,101652.16
2023-04-25T14:23:12.403Z,101657.25
2023-04-25T14:25:43.527Z,101655.56
2023-04-25T14:28:10.961Z,101659.25
2023-04-25T14:30:38.326Z,101656.44
2023-04-25T14:33:12.784Z,101661.56
2023-04-25T14:35:43.404Z,101664.94
2023-04-25T14:38:10.919Z,101657.34
2023-04-25T14:40:39.178Z,101658.22
2023-04-25T14:43:06.578Z,101663.34
2023-04-25T14:45:33.881Z,101657.72
2023-04-25T14:48:01.356Z,101653.22
2023-04-25T14:50:31.912Z,101651.84
2023-04-25T14:53:01.283Z,101641.75
2023-04-25T14:55:28.825Z,101653.56
2023-04-25T14:57:57.629Z,101649.38
2023-04-25T15:00:27.937Z,101652.78
2023-04-25T15:03:03.081Z,101654.75
2023-04-25T15:05:42.403Z,101648.59
2023-04-25T15:08:10.015Z,101650.88
2023-04-25T15:10:44.416Z,101648.63
2023-04-25T15:13:12.169Z,101645.56
2023-04-25T15:15:39.444Z,101648.63
2023-04-25T15:18:06.827Z,101645.56
2023-04-25T15:23:23.281Z,101641.03
2023-04-25T15:25:52.261Z,101644.41
2023-04-25T15:28:19.712Z,101642.06
2023-04-25T15:30:48.766Z,101637.81
2023-04-25T15:33:35.124Z,101637.13
2023-04-25T15:36:21.575Z,101643.56
2023-04-25T15:41:29.929Z,101642.84
2023-04-25T15:43:57.171Z,101637.97
2023-04-25T15:46:24.529Z,101636.50
2023-04-25T15:48:51.688Z,101628.00
2023-04-25T15:51:18.709Z,101627.94
2023-04-25T15:53:45.609Z,101636.81
2023-04-25T15:56:12.730Z,101633.97
2023-04-25T15:58:40.021Z,101631.09
2023-04-25T16:01:07.257Z,101630.50
2023-04-25T16:03:36.611Z,101626.47
2023-04-25T16:06:04.917Z,101629.22
2023-04-25T16:08:34.685Z,101624.66
2023-04-25T16:11:06.144Z,101626.25
2023-04-25T16:13:34.176Z,101622.00
2023-04-25T16:16:02.190Z,101628.41
2023-04-25T16:18:29.492Z,101625.50
2023-04-25T16:20:56.515Z,101634.19
2023-04-25T16:23:23.884Z,101628.22
2023-04-25T16:25:51.592Z,101626.78
2023-04-25T16:28:19.248Z,101622.00
2023-04-25T16:30:56.254Z,101623.69
2023-04-25T16:33:23.507Z,101619.41
2023-04-25T16:35:52.942Z,101621.09
2023-04-25T16:38:20.348Z,101623.06
2023-04-25T16:40:51.611Z,101619.09
2023-04-25T16:43:24.612Z,101615.44
2023-04-25T16:45:59.106Z,101613.97
2023-04-25T16:48:26.697Z,101617.84
2023-04-25T16:54:22.246Z,101606.91
2023-04-25T16:56:49.465Z,101607.13
2023-04-25T16:59:19.251Z,101614.38
2023-04-25T17:02:07.207Z,101609.19
2023-04-25T17:04:47.155Z,101619.25
2023-04-25T17:07:32.237Z,101616.34
2023-04-25T17:10:00.363Z,101613.41
2023-04-25T17:12:45.385Z,101604.97
2023-04-25T17:15:47.142Z,101607.69
2023-04-25T17:18:17.751Z,101604.56
2023-04-25T17:20:51.814Z,101604.28
2023-04-25T17:26:03.848Z,101605.94
2023-04-25T17:28:36.860Z,101617.75
2023-04-25T17:34:00.210Z,101614.94
2023-04-25T17:36:28.373Z,101612.41
2023-04-25T17:38:56.030Z,101610.75
2023-04-25T17:41:23.372Z,101618.38
2023-04-25T17:43:50.973Z,101614.16
2023-04-25T17:46:21.976Z,101612.81
2023-04-25T17:48:58.182Z,101616.56
2023-04-25T17:51:25.669Z,101612.06
2023-04-25T17:53:53.853Z,101615.19
2023-04-25T17:56:27.123Z,101615.59
2023-04-25T17:58:55.280Z,101618.19
2023-04-25T18:01:23.324Z,101612.56
2023-04-25T18:03:54.296Z,101612.66
2023-04-25T18:06:21.860Z,101612.69
2023-04-25T18:08:50.157Z,101612.69
2023-04-25T18:11:18.247Z,101608.75
2023-04-25T18:13:48.914Z,101607.56
2023-04-25T18:16:16.451Z,101611.22
2023-04-25T18:18:44.783Z,101609.88
2023-04-25T18:21:12.413Z,101605.66
2023-04-25T18:23:39.707Z,101598.97
2023-04-25T18:26:06.846Z,101604.31
2023-04-25T18:28:34.927Z,101596.50
2023-04-25T18:31:07.168Z,101602.41
2023-04-25T18:33:34.407Z,101600.53
2023-04-25T18:36:02.011Z,101599.97
2023-04-25T18:38:35.673Z,101598.91
2023-04-25T18:41:18.385Z,101608.84
2023-04-25T18:43:52.300Z,101604.97
2023-04-25T18:46:23.009Z,101605.53
2023-04-25T18:48:51.935Z,101602.22
2023-04-25T18:51:19.787Z,101602.00
2023-04-25T18:53:47.450Z,101598.72
2023-04-25T18:56:15.712Z,101600.75
2023-04-25T18:58:43.044Z,101591.25
2023-04-25T19:01:10.872Z,101587.38
2023-04-25T19:03:38.202Z,101588.50
2023-04-25T19:06:05.587Z,101594.19
2023-04-25T19:08:32.874Z,101596.78
2023-04-25T19:11:07.528Z,101600.22
2023-04-25T19:13:41.229Z,101593.19
2023-04-25T19:16:08.450Z,101600.25
2023-04-25T19:18:35.691Z,101607.00
2023-04-25T19:21:04.473Z,101595.81
2023-04-25T19:23:32.165Z,101607.06
2023-04-25T19:25:59.142Z,101607.47
2023-04-25T19:28:26.890Z,101607.22
2023-04-25T19:30:57.128Z,101603.56
2023-04-25T19:33:24.053Z,101612.06
2023-04-25T19:35:51.290Z,101620.81
2023-04-25T19:38:18.424Z,101621.41
2023-04-25T19:40:45.445Z,101618.06
2023-04-25T19:43:12.894Z,101617.53
2023-04-25T19:45:40.310Z,101626.53
2023-04-25T19:48:09.246Z,101635.59
2023-04-25T19:50:36.394Z,101626.59
2023-04-25T19:53:04.739Z,101638.44
2023-04-25T19:55:31.918Z,101640.75
2023-04-25T19:57:59.106Z,101647.25
2023-04-25T20:00:26.324Z,101654.00
2023-04-25T20:02:56.099Z,101650.66
2023-04-25T20:05:23.964Z,101651.53
2023-04-25T20:07:50.887Z,101658.00
2023-04-25T20:10:18.018Z,101664.22
2023-04-25T20:12:45.225Z,101666.47
2023-04-25T20:15:12.682Z,101667.09
2023-04-25T20:17:42.853Z,101666.28
2023-04-25T20:20:11.523Z,101665.44
2023-04-25T20:22:40.704Z,101654.53
2023-04-25T20:25:08.955Z,101660.72
2023-04-25T20:27:38.565Z,101667.78
2023-04-25T20:30:08.586Z,101659.63
2023-04-25T20:32:35.982Z,101667.22
2023-04-25T20:35:04.372Z,101669.75
2023-04-25T20:37:32.491Z,101665.25
2023-04-25T20:40:00.256Z,101672.59
2023-04-25T20:42:27.318Z,101680.50
2023-04-25T20:44:54.971Z,101682.75
2023-04-25T20:47:24.413Z,101672.41
2023-04-25T20:49:51.614Z,101681.66
2023-04-25T20:52:19.164Z,101682.28
2023-04-25T20:54:50.823Z,101684.53
2023-04-25T20:57:18.143Z,101687.09
2023-04-25T20:59:45.198Z,101690.72
2023-04-25T21:02:12.902Z,101700.56
2023-04-25T21:04:39.933Z,101708.19
2023-04-25T21:07:06.896Z,101703.72
2023-04-25T21:09:33.816Z,101707.66
2023-04-25T21:12:00.675Z,101705.44
2023-04-25T21:14:27.641Z,101714.44
2023-04-25T21:16:54.905Z,101716.69
2023-04-25T21:19:21.980Z,101704.91
2023-04-25T21:21:49.075Z,101712.22
2023-04-25T21:24:16.833Z,101711.13
2023-04-25T21:26:43.897Z,101714.53
2023-04-25T21:29:10.972Z,101714.22
2023-04-25T21:31:39.111Z,101700.50
2023-04-25T21:34:07.597Z,101701.91
2023-04-25T21:36:34.799Z,101706.41
2023-04-25T21:39:01.929Z,101702.75
2023-04-25T21:41:29.053Z,101700.81
2023-04-25T21:43:56.340Z,101706.19
2023-04-25T21:46:24.896Z,101703.66
2023-04-25T21:48:52.845Z,101709.56
2023-04-25T21:51:20.392Z,101700.59
2023-04-25T21:53:47.295Z,101700.03
2023-04-25T21:56:14.131Z,101703.13
2023-04-25T21:58:41.190Z,101693.31
2023-04-25T22:01:08.241Z,101703.41
2023-04-25T22:03:39.688Z,101701.47
2023-04-25T22:06:06.799Z,101706.19
2023-04-25T22:08:33.642Z,101703.63
2023-04-25T22:11:02.893Z,101696.84
2023-04-25T22:13:29.936Z,101700.47
2023-04-25T22:15:56.924Z,101700.72
2023-04-25T22:18:23.857Z,101705.75
2023-04-25T22:20:50.814Z,101720.03
2023-04-25T22:23:17.696Z,101719.47
2023-04-25T22:25:44.751Z,101719.41
2023-04-25T22:28:12.982Z,101723.34
2023-04-25T22:30:40.151Z,101721.63
2023-04-25T22:33:07.362Z,101720.75
2023-04-25T22:35:34.417Z,101717.91
2023-04-25T22:38:01.977Z,101725.16
2023-04-25T22:40:28.993Z,101734.38
2023-04-25T22:42:55.915Z,101721.16
2023-04-25T22:45:22.842Z,101723.09
2023-04-25T22:47:49.761Z,101719.94
2023-04-25T22:50:17.422Z,101721.84
2023-04-25T22:52:44.646Z,101726.31
2023-04-25T22:55:13.385Z,101722.63
2023-04-25T22:57:40.722Z,101719.75
2023-04-25T23:00:15.534Z,101715.50
2023-04-25T23:02:43.234Z,101710.94
2023-04-25T23:05:10.120Z,101716.00
2023-04-25T23:07:36.966Z,101717.09
2023-04-25T23:10:03.976Z,101722.09
2023-04-25T23:12:30.780Z,101725.47
2023-04-25T23:14:57.689Z,101727.69
2023-04-25T23:17:24.589Z,101722.63
2023-04-25T23:19:51.499Z,101707.38
2023-04-25T23:22:18.469Z,101720.03
2023-04-25T23:24:45.339Z,101720.56
2023-04-25T23:27:12.220Z,101717.47
2023-04-25T23:29:40.847Z,101717.16
2023-04-25T23:32:09.081Z,101724.47
2023-04-25T23:34:35.926Z,101724.16
2023-04-25T23:37:04.781Z,101719.38
2023-04-25T23:39:31.567Z,101725.84
2023-04-25T23:41:58.426Z,101724.72
2023-04-25T23:44:25.318Z,101725.56
2023-04-25T23:46:52.226Z,101728.88
2023-04-25T23:49:19.273Z,101726.06
2023-04-25T23:51:46.728Z,101725.22
2023-04-25T23:54:13.798Z,101730.88
2023-04-25T23:56:40.592Z,101732.84
2023-04-25T23:59:07.614Z,101733.69
